Map

Track Data

SID SEASON NUMBER BASIN SUBBASIN NAME ISO_TIME NATURE LAT LON WMO_WIND WMO_PRES WMO_AGENCY TRACK_TYPE DIST2LAND LANDFALL IFLAG USA_AGENCY USA_ATCF_ID USA_LAT USA_LON USA_RECORD USA_STATUS USA_WIND USA_PRES USA_SSHS USA_R34_NE USA_R34_SE USA_R34_SW USA_R34_NW USA_R50_NE USA_R50_SE USA_R50_SW USA_R50_NW USA_R64_NE USA_R64_SE USA_R64_SW USA_R64_NW USA_POCI USA_ROCI USA_RMW USA_EYE TOKYO_LAT TOKYO_LON TOKYO_GRADE TOKYO_WIND TOKYO_PRES TOKYO_R50_DIR TOKYO_R50_LONG TOKYO_R50_SHORT TOKYO_R30_DIR TOKYO_R30_LONG TOKYO_R30_SHORT TOKYO_LAND CMA_LAT CMA_LON CMA_CAT CMA_WIND CMA_PRES HKO_LAT HKO_LON HKO_CAT HKO_WIND HKO_PRES NEWDELHI_LAT NEWDELHI_LON NEWDELHI_GRADE NEWDELHI_WIND NEWDELHI_PRES NEWDELHI_CI NEWDELHI_DP NEWDELHI_POCI REUNION_LAT REUNION_LON REUNION_TYPE REUNION_WIND REUNION_PRES REUNION_TNUM REUNION_CI REUNION_RMW REUNION_R34_NE REUNION_R34_SE REUNION_R34_SW REUNION_R34_NW REUNION_R50_NE REUNION_R50_SE REUNION_R50_SW REUNION_R50_NW REUNION_R64_NE REUNION_R64_SE REUNION_R64_SW REUNION_R64_NW BOM_LAT BOM_LON BOM_TYPE BOM_WIND BOM_PRES BOM_TNUM BOM_CI BOM_RMW BOM_R34_NE BOM_R34_SE BOM_R34_SW BOM_R34_NW BOM_R50_NE BOM_R50_SE BOM_R50_SW BOM_R50_NW BOM_R64_NE BOM_R64_SE BOM_R64_SW BOM_R64_NW BOM_ROCI BOM_POCI BOM_EYE BOM_POS_METHOD BOM_PRES_METHOD NADI_LAT NADI_LON NADI_CAT NADI_WIND NADI_PRES WELLINGTON_LAT WELLINGTON_LON WELLINGTON_WIND WELLINGTON_PRES DS824_LAT DS824_LON DS824_STAGE DS824_WIND DS824_PRES TD9636_LAT TD9636_LON TD9636_STAGE TD9636_WIND TD9636_PRES TD9635_LAT TD9635_LON TD9635_WIND TD9635_PRES TD9635_ROCI NEUMANN_LAT NEUMANN_LON NEUMANN_CLASS NEUMANN_WIND NEUMANN_PRES MLC_LAT MLC_LON MLC_CLASS MLC_WIND MLC_PRES USA_GUST BOM_GUST BOM_GUST_PER REUNION_GUST REUNION_GUST_PER USA_SEAHGT USA_SEARAD_NE USA_SEARAD_SE USA_SEARAD_SW USA_SEARAD_NW STORM_SPEED STORM_DIR
1976242N08268 1976 103 EP MM JOANNE 1976-08-29 00:00:00 TS 7.80000 -92.2000 25 hurdat_epa main 690 682 O________OO___ hurdat_epa EP101976 7.80000 -92.2000 TD 25 -1 7.80000 -92.2000 TC 25 7.80000 -92.2000 1 25 12 283
1976242N08268 1976 103 EP MM JOANNE 1976-08-29 03:00:00 TS 7.93410 -92.8090 main 691 683 P________PP___ EP101976 7.95014 -92.7999 TD 25 -1 7.95014 -92.7999 TC 25 7.86993 -92.8454 1 25 12 283
1976242N08268 1976 103 EP MM JOANNE 1976-08-29 06:00:00 TS 8.07429 -93.4126 25 hurdat_epa main 688 688 O________OP___ hurdat_epa EP101976 8.10000 -93.4000 TD 25 -1 8.10000 -93.4000 TC 25 7.97143 -93.4628 1 25 12 284
1976242N08268 1976 103 EP MM JOANNE 1976-08-29 09:00:00 TS 8.23744 -93.9948 main 703 697 P________PP___ EP101976 8.26250 -93.9876 TD 25 -1 8.26250 -93.9876 TC 25 8.13718 -94.0237 1 25 12 291
1976242N08268 1976 103 EP MM JOANNE 1976-08-29 12:00:00 TS 8.48000 -94.5000 25 hurdat_epa main 698 686 O________OO___ hurdat_epa EP101976 8.50000 -94.5000 TD 25 -1 8.50000 -94.5000 TC 25 8.40000 -94.5000 1 25 11 305
1976242N08268 1976 103 EP MM JOANNE 1976-08-29 15:00:00 TS 8.85676 -94.8739 main 682 661 P________PP___ EP101976 8.87735 -94.8726 TD 25 -1 8.87735 -94.8726 TC 25 8.77439 -94.8794 1 26 11 319
1976242N08268 1976 103 EP MM JOANNE 1976-08-29 18:00:00 TS 9.28023 -95.2024 25 hurdat_epa main 661 645 O________OP___ hurdat_epa EP101976 9.30000 -95.2000 TD 25 -1 9.30000 -95.2000 TC 25 9.20113 -95.2121 1 27 11 321
1976242N08268 1976 103 EP MM JOANNE 1976-08-29 21:00:00 TS 9.68829 -95.5507 main 651 630 P________PP___ EP101976 9.70977 -95.5474 TD 27 -1 9.70977 -95.5474 TC 27 9.60237 -95.5637 1 28 11 312
1976242N08268 1976 103 EP MM JOANNE 1976-08-30 00:00:00 TS 9.98000 -96.0000 30 hurdat_epa main 630 627 O________OO___ hurdat_epa EP101976 10.0000 -96.0000 TD 30 -1 10.0000 -96.0000 TC 30 9.90000 -96.0000 1 30 11 288
1976242N08268 1976 103 EP MM JOANNE 1976-08-30 03:00:00 TS 10.0377 -96.6405 main 627 627 P________PP___ EP101976 10.0525 -96.6478 TD 27 -1 10.0525 -96.6478 TC 27 9.97820 -96.6116 1 28 14 270
1976242N08268 1976 103 EP MM JOANNE 1976-08-30 06:00:00 TS 9.98960 -97.3823 25 hurdat_epa main 633 633 O________OP___ hurdat_epa EP101976 10.0000 -97.4000 TD 25 -1 10.0000 -97.4000 TC 25 9.94801 -97.3114 1 27 15 267
1976242N08268 1976 103 EP MM JOANNE 1976-08-30 09:00:00 TS 9.95561 -98.1192 main 647 647 P________PP___ EP101976 9.97733 -98.1352 TD 25 -1 9.97733 -98.1352 TC 25 9.86873 -98.0554 1 26 15 269
1976242N08268 1976 103 EP MM JOANNE 1976-08-30 12:00:00 TS 9.96000 -98.8800 25 hurdat_epa main 674 674 O________OO___ hurdat_epa EP101976 10.0000 -98.9000 TD 25 -1 10.0000 -98.9000 TC 25 9.80000 -98.8000 1 25 15 274
1976242N08268 1976 103 EP MM JOANNE 1976-08-30 15:00:00 TS 10.0727 -99.6579 main 691 691 P________PP___ EP101976 10.1349 -99.6998 TD 27 -1 10.1349 -99.6998 TC 27 9.82401 -99.4902 1 25 16 279
1976242N08268 1976 103 EP MM JOANNE 1976-08-30 18:00:00 TS 10.2139 -100.434 30 hurdat_epa main 707 707 O________OP___ hurdat_epa EP101976 10.3000 -100.500 TD 30 -1 10.3000 -100.500 TC 30 9.86955 -100.172 1 25 15 279
1976242N08268 1976 103 EP MM JOANNE 1976-08-30 21:00:00 TS 10.3059 -101.175 main 728 728 P________PP___ EP101976 10.3998 -101.258 TD 27 -1 10.3998 -101.258 TC 27 9.93030 -100.843 1 25 15 277
1976242N08268 1976 103 EP MM JOANNE 1976-08-31 00:00:00 TS 10.4000 -101.900 25 hurdat_epa main 744 744 O________OO___ hurdat_epa EP101976 10.5000 -102.000 TD 25 -1 10.5000 -102.000 TC 25 10.0000 -101.500 1 25 14 279
1976242N08268 1976 103 EP MM JOANNE 1976-08-31 03:00:00 TS 10.5300 -102.624 main 761 755 P________PP___ EP101976 10.6498 -102.750 TD 25 -1 10.6498 -102.750 TC 25 10.0508 -102.119 1 25 14 280
1976242N08268 1976 103 EP MM JOANNE 1976-08-31 06:00:00 TS 10.6623 -103.346 25 hurdat_epa main 776 776 O________OP___ hurdat_epa EP101976 10.8000 -103.500 TD 25 -1 10.8000 -103.500 TC 25 10.1114 -102.728 1 25 15 279
1976242N08268 1976 103 EP MM JOANNE 1976-08-31 09:00:00 TS 10.7703 -104.094 main 796 796 P________PP___ EP101976 10.9150 -104.280 TD 25 -1 10.9150 -104.280 TC 25 10.1914 -103.348 1 25 14 278
1976242N08268 1976 103 EP MM JOANNE 1976-08-31 12:00:00 TS 10.8600 -104.800 25 hurdat_epa main 820 820 O________OO___ hurdat_epa EP101976 11.0000 -105.000 TD 25 -1 11.0000 -105.000 TC 25 10.3000 -104.000 1 25 13 278
1976242N08268 1976 103 EP MM JOANNE 1976-08-31 15:00:00 TS 10.9609 -105.423 main 839 839 P________PP___ EP101976 11.0723 -105.595 TD 25 -1 11.0723 -105.595 TC 25 10.5155 -104.733 1 25 12 278
1976242N08268 1976 103 EP MM JOANNE 1976-08-31 18:00:00 TS 11.0296 -105.980 25 hurdat_epa main 860 853 O________OP___ hurdat_epa EP101976 11.1000 -106.100 TD 25 -1 11.1000 -106.100 TC 25 10.7478 -105.498 1 25 10 277
1976242N08268 1976 103 EP MM JOANNE 1976-08-31 21:00:00 TS 11.0859 -106.475 main 868 868 P________PP___ EP101976 11.1247 -106.527 TD 25 -1 11.1247 -106.527 TC 25 10.9311 -106.264 1 25 10 268
1976242N08268 1976 103 EP MM JOANNE 1976-09-01 00:00:00 TS 11.0000 -107.000 25 hurdat_epa main 899 899 O________OO___ hurdat_epa EP101976 11.0000 -107.000 TD 25 -1 11.0000 -107.000 TC 25 11.0000 -107.000 1 25 13 248
1976242N08268 1976 103 EP MM JOANNE 1976-09-01 03:00:00 TS 10.5983 -107.689 main 973 973 P________PP___ EP101976 10.5502 -107.686 TD 27 -1 10.5502 -107.686 TC 27 10.7907 -107.703 1 26 16 239
1976242N08268 1976 103 EP MM JOANNE 1976-09-01 06:00:00 TS 10.1755 -108.393 30 hurdat_epa main 1049 1049 O________OP___ hurdat_epa EP101976 10.1000 -108.400 TD 30 -1 10.1000 -108.400 TC 30 10.4773 -108.365 1 27 14 246
1976242N08268 1976 103 EP MM JOANNE 1976-09-01 09:00:00 TS 10.0210 -109.007 main 1102 1102 P________PP___ EP101976 9.98247 -109.017 TD 30 -1 9.98247 -109.017 TC 30 10.1752 -108.969 1 28 11 261
1976242N08268 1976 103 EP MM JOANNE 1976-09-01 12:00:00 TS 10.0000 -109.500 30 hurdat_epa main 1132 1132 O________OO___ hurdat_epa EP101976 10.0000 -109.500 TD 30 -1 10.0000 -109.500 TC 30 10.0000 -109.500 1 30 8 265
1976242N08268 1976 103 EP MM JOANNE 1976-09-01 15:00:00 TS 9.95496 -109.803 main 1150 1150 P________PP___ EP101976 9.91723 -109.758 TD 30 -1 9.91723 -109.758 TC 30 10.1059 -109.986 1 30 6 277
1976242N08268 1976 103 EP MM JOANNE 1976-09-01 18:00:00 TS 10.0699 -110.080 30 hurdat_epa main 1161 1150 O________OP___ hurdat_epa EP101976 10.0000 -110.000 TD 30 -1 10.0000 -110.000 TC 30 10.3496 -110.399 1 30 9 307
1976242N08268 1976 103 EP MM JOANNE 1976-09-01 21:00:00 TS 10.5039 -110.553 main 1156 1133 P________PP___ EP101976 10.4627 -110.507 TD 30 -1 10.4627 -110.507 TC 30 10.6685 -110.737 1 30 13 316
1976242N08268 1976 103 EP MM JOANNE 1976-09-02 00:00:00 TS 11.0000 -111.000 30 hurdat_epa main 1133 1119 O________OO___ hurdat_epa EP101976 11.0000 -111.000 TD 30 -1 11.0000 -111.000 TC 30 11.0000 -111.000 1 30 10 319
1976242N08268 1976 103 EP MM JOANNE 1976-09-02 03:00:00 TS 11.2773 -111.228 main 1119 1108 P________PP___ EP101976 11.2873 -111.245 TD 30 -1 11.2873 -111.245 TC 30 11.2373 -111.157 1 30 6 324
1976242N08268 1976 103 EP MM JOANNE 1976-09-02 06:00:00 TS 11.4954 -111.370 30 hurdat_epa main 1114 1104 O________OP___ hurdat_epa EP101976 11.5000 -111.400 TD 30 -1 11.5000 -111.400 TC 30 11.4768 -111.251 1 30 6 326
1976242N08268 1976 103 EP MM JOANNE 1976-09-02 09:00:00 TS 11.7336 -111.537 main 1104 1093 P________PP___ EP101976 11.7350 -111.585 TD 30 -1 11.7350 -111.585 TC 30 11.7280 -111.345 1 30 6 324
1976242N08268 1976 103 EP MM JOANNE 1976-09-02 12:00:00 TS 12.0000 -111.740 30 hurdat_epa main 1093 1090 O________OO___ hurdat_epa EP101976 12.0000 -111.800 TD 30 -1 12.0000 -111.800 TC 30 12.0000 -111.500 1 30 8 321
1976242N08268 1976 103 EP MM JOANNE 1976-09-02 15:00:00 TS 12.3396 -112.033 main 1090 1081 P________PP___ EP101976 12.3425 -112.085 TD 30 -1 12.3425 -112.085 TC 30 12.3282 -111.823 1 30 9 319
1976242N08268 1976 103 EP MM JOANNE 1976-09-02 18:00:00 TS 12.6946 -112.362 30 hurdat_epa main 1089 1080 O________OP___ hurdat_epa EP101976 12.7000 -112.400 TD 30 -1 12.7000 -112.400 TC 30 12.6731 -112.212 1 30 9 317
1976242N08268 1976 103 EP MM JOANNE 1976-09-02 21:00:00 TS 13.0253 -112.690 main 1088 1080 P________PP___ EP101976 13.0300 -112.707 TD 30 -1 13.0300 -112.707 TC 30 13.0063 -112.620 1 30 9 314
1976242N08268 1976 103 EP MM JOANNE 1976-09-03 00:00:00 TS 13.3000 -113.000 30 hurdat_epa main 1089 1089 O________OO___ hurdat_epa EP101976 13.3000 -113.000 TD 30 -1 13.3000 -113.000 TC 30 13.3000 -113.000 1 30 7 309
1976242N08268 1976 103 EP MM JOANNE 1976-09-03 03:00:00 TS 13.4731 -113.264 main 1098 1098 P________PP___ EP101976 13.4649 -113.258 TD 30 -1 13.4649 -113.258 TC 30 13.5057 -113.291 1 32 6 302
1976242N08268 1976 103 EP MM JOANNE 1976-09-03 06:00:00 TS 13.6144 -113.509 30 hurdat_epa main 1104 1090 O________OP___ hurdat_epa EP101976 13.6000 -113.500 TD 30 -1 13.6000 -113.500 TC 30 13.6722 -113.546 1 35 6 304
1976242N08268 1976 103 EP MM JOANNE 1976-09-03 09:00:00 TS 13.7935 -113.756 main 1094 1077 P________PP___ EP101976 13.7850 -113.750 TD 35 0 13.7850 -113.750 TC 35 13.8276 -113.778 1 37 6 309
1976242N08268 1976 103 EP MM JOANNE 1976-09-03 12:00:00 TS 14.0000 -114.000 40 hurdat_epa main 1081 1069 O________OO___ hurdat_epa EP101976 14.0000 -114.000 TS 40 0 14.0000 -114.000 TC 40 14.0000 -114.000 2 40 7 313
1976242N08268 1976 103 EP MM JOANNE 1976-09-03 15:00:00 TS 14.2451 -114.254 main 1073 1047 P________PP___ EP101976 14.2350 -114.258 TS 40 0 14.2350 -114.258 TC 40 14.2853 -114.240 2 38 7 317
1976242N08268 1976 103 EP MM JOANNE 1976-09-03 18:00:00 TS 14.5165 -114.494 40 hurdat_epa main 1052 1027 O________OP___ hurdat_epa EP101976 14.5000 -114.500 TS 40 0 14.5000 -114.500 TC 40 14.5824 -114.472 2 37 8 324
1976242N08268 1976 103 EP MM JOANNE 1976-09-03 21:00:00 TS 14.8557 -114.705 main 1022 1013 P________PP___ EP101976 14.8600 -114.707 TS 37 0 14.8600 -114.707 TC 37 14.8384 -114.693 2 36 7 325
1976242N08268 1976 103 EP MM JOANNE 1976-09-04 00:00:00 TS 15.0800 -114.900 35 hurdat_epa main 1013 1013 O________OO___ hurdat_epa EP101976 15.1000 -114.900 TS 35 0 15.1000 -114.900 TC 35 15.0000 -114.900 2 35 4 291
1976242N08268 1976 103 EP MM JOANNE 1976-09-04 03:00:00 TS 15.0064 -115.102 main 1033 1033 P________PP___ EP101976 15.0100 -115.115 TS 35 0 15.0100 -115.115 TC 35 14.9921 -115.049 2 36 5 234
1976242N08268 1976 103 EP MM JOANNE 1976-09-04 06:00:00 TS 14.8179 -115.278 35 hurdat_epa main 1063 1063 O________OP___ hurdat_epa EP101976 14.8000 -115.300 TS 35 0 14.8000 -115.300 TC 35 14.8894 -115.190 2 37 4 221
1976242N08268 1976 103 EP MM JOANNE 1976-09-04 09:00:00 TS 14.7023 -115.374 main 1078 1078 P________PP___ EP101976 14.6924 -115.377 TS 40 0 14.6924 -115.377 TC 40 14.7420 -115.362 2 38 3 227
1976242N08268 1976 103 EP MM JOANNE 1976-09-04 12:00:00 TS 14.6000 -115.520 45 hurdat_epa main 1093 1093 O________OO___ hurdat_epa EP101976 14.6000 -115.500 TS 45 0 14.6000 -115.500 TC 45 14.6000 -115.600 2 40 5 245
1976242N08268 1976 103 EP MM JOANNE 1976-09-04 15:00:00 TS 14.5047 -115.821 main 1120 1120 P________PP___ EP101976 14.4999 -115.782 TS 40 0 14.4999 -115.782 TC 40 14.5239 -115.974 2 37 7 255
1976242N08268 1976 103 EP MM JOANNE 1976-09-04 18:00:00 TS 14.4126 -116.243 35 hurdat_epa main 1153 1153 O________OP___ hurdat_epa EP101976 14.4000 -116.200 TS 35 0 14.4000 -116.200 TC 35 14.4632 -116.413 2 35 9 258
1976242N08268 1976 103 EP MM JOANNE 1976-09-04 21:00:00 TS 14.3123 -116.774 main 1199 1199 P________PP___ EP101976 14.2852 -116.750 TS 32 -1 14.2852 -116.750 TC 32 14.4208 -116.870 2 32 10 260
1976242N08268 1976 103 EP MM JOANNE 1976-09-05 00:00:00 TS 14.2400 -117.300 30 hurdat_epa main 1240 1240 O________OO___ hurdat_epa EP101976 14.2000 -117.300 TD 30 -1 14.2000 -117.300 TC 30 14.4000 -117.300 1 30 9 264
1976242N08268 1976 103 EP MM JOANNE 1976-09-05 03:00:00 TS 14.2194 -117.681 main 1266 1266 P________PP___ EP101976 14.1623 -117.695 TD 27 -1 14.1623 -117.695 TC 27 14.4476 -117.623 1 30 7 272
1976242N08268 1976 103 EP MM JOANNE 1976-09-05 06:00:00 TS 14.2619 -117.983 25 hurdat_epa main 1278 1276 O________OP___ hurdat_epa EP101976 14.2000 -118.000 TD 25 -1 14.2000 -118.000 TC 25 14.5093 -117.914 1 30 6 290
1976242N08268 1976 103 EP MM JOANNE 1976-09-05 09:00:00 TS 14.4061 -118.221 main 1284 1282 P________PP___ EP101976 14.3723 -118.227 TD 27 -1 14.3723 -118.227 TC 27 14.5414 -118.198 1 30 6 295
1976242N08268 1976 103 EP MM JOANNE 1976-09-05 12:00:00 TS 14.5000 -118.500 30 hurdat_epa main 1297 1297 O________OO___ hurdat_epa EP101976 14.5000 -118.500 TD 30 -1 14.5000 -118.500 TC 30 14.5000 -118.500 1 30 7 269
1976242N08268 1976 103 EP MM JOANNE 1976-09-05 15:00:00 TS 14.3960 -118.971 main 1342 1342 P________PP___ EP101976 14.4178 -119.000 TD 30 -1 14.4178 -119.000 TC 30 14.3087 -118.854 1 30 10 250
1976242N08268 1976 103 EP MM JOANNE 1976-09-05 18:00:00 TS 14.1690 -119.446 30 hurdat_epa main 1388 1388 O________OP___ hurdat_epa EP101976 14.2000 -119.500 TD 30 -1 14.2000 -119.500 TC 30 14.0450 -119.228 1 30 9 236
1976242N08268 1976 103 EP MM JOANNE 1976-09-05 21:00:00 TS 13.8896 -119.741 main 1434 1434 P________PP___ EP101976 13.9223 -119.772 TD 30 -1 13.9223 -119.772 TC 30 13.7587 -119.613 1 30 8 222
1976242N08268 1976 103 EP MM JOANNE 1976-09-06 00:00:00 TS 13.5800 -120.000 30 hurdat_epa main 1481 1481 O________OO___ hurdat_epa EP101976 13.6000 -120.000 TD 30 -1 13.6000 -120.000 TC 30 13.5000 -120.000 1 30 8 224
1976242N08268 1976 103 EP MM JOANNE 1976-09-06 03:00:00 TS 13.2914 -120.343 main 1528 1528 P________PP___ EP101976 13.2775 -120.328 TD 30 -1 13.2775 -120.328 TC 30 13.3473 -120.403 1 30 9 233
1976242N08268 1976 103 EP MM JOANNE 1976-09-06 06:00:00 TS 13.0455 -120.720 30 hurdat_epa main 1582 1582 O________OP___ hurdat_epa EP101976 13.0000 -120.700 TD 30 -1 13.0000 -120.700 TC 30 13.2277 -120.802 1 30 9 241
1976242N08268 1976 103 EP MM JOANNE 1976-09-06 09:00:00 TS 12.8739 -121.121 main 1620 1620 P________PP___ EP101976 12.8125 -121.107 TD 30 -1 12.8125 -121.107 TC 30 13.1192 -121.175 1 30 8 249
1976242N08268 1976 103 EP MM JOANNE 1976-09-06 12:00:00 TS 12.7600 -121.500 30 hurdat_epa main 1657 1657 O________OO___ hurdat_epa EP101976 12.7000 -121.500 TD 30 -1 12.7000 -121.500 TC 30 13.0000 -121.500 1 30 7 252
1976242N08268 1976 103 EP MM JOANNE 1976-09-06 15:00:00 TS 12.6699 -121.776 main 1685 1685 P________PP___ EP101976 12.6348 -121.785 TD 30 -1 12.6348 -121.785 TC 30 12.8106 -121.738 1 30 6 254
1976242N08268 1976 103 EP MM JOANNE 1976-09-06 18:00:00 TS 12.6024 -122.066 30 hurdat_epa main 1713 1713 O________OP___ hurdat_epa EP101976 12.6000 -122.100 TD 30 -1 12.6000 -122.100 TC 30 12.6120 -121.930 1 30 7 256
1976242N08268 1976 103 EP MM JOANNE 1976-09-06 21:00:00 TS 12.5023 -122.442 main 1742 1742 P________PP___ EP101976 12.5197 -122.525 TD 30 -1 12.5197 -122.525 TC 30 12.4325 -122.107 1 30 9 261
1976242N08268 1976 103 EP MM JOANNE 1976-09-07 00:00:00 TS 12.4600 -122.940 30 hurdat_epa main 1775 1775 O________OO___ hurdat_epa EP101976 12.5000 -123.100 TD 30 -1 12.5000 -123.100 TC 30 12.3000 -122.300 1 30 11 272
1976242N08268 1976 103 EP MM JOANNE 1976-09-07 03:00:00 TS 12.5449 -123.612 main 1823 1821 P________PP___ EP101976 12.6278 -123.877 TD 30 -1 12.6278 -123.877 TC 30 12.2131 -122.554 1 30 14 279
1976242N08268 1976 103 EP MM JOANNE 1976-09-07 06:00:00 TS 12.6760 -124.326 30 hurdat_epa main 1855 1855 O________OP___ hurdat_epa EP101976 12.8000 -124.700 TD 30 -1 12.8000 -124.700 TC 30 12.1800 -122.828 1 30 14 280
1976242N08268 1976 103 EP MM JOANNE 1976-09-07 09:00:00 TS 12.7735 -125.005 main 1899 1899 P________PP___ EP101976 12.9151 -125.477 TD 30 -1 12.9151 -125.477 TC 30 12.2069 -123.113 1 30 11 279
1976242N08268 1976 103 EP MM JOANNE 1976-09-07 12:00:00 TS 12.8600 -125.480 30 hurdat_epa main 1928 1928 O________OO___ hurdat_epa EP101976 13.0000 -126.000 TD 30 -1 13.0000 -126.000 TC 30 12.3000 -123.400 1 30 7 284
1976242N08268 1976 103 EP MM JOANNE 1976-09-07 15:00:00 TS 12.9378 -125.658 main 1944 1920 P________PP___ EP101976 13.0569 -126.153 TD 27 -1 13.0569 -126.153 TC 27 12.4616 -123.681 1 28 2 349
1976242N08268 1976 103 EP MM JOANNE 1976-09-07 18:00:00 ET 13.0155 -125.511 25 hurdat_epa main 1920 1882 O________OP___ hurdat_epa EP101976 13.1000 -125.900 ET 25 -4 13.1000 -125.900 25 12.6777 -123.957 1 27 6 73
1976242N08268 1976 103 EP MM JOANNE 1976-09-07 21:00:00 ET 13.1047 -125.082 main 1882 1829 P________PP___ EP101976 13.1484 -125.295 ET 25 -4 13.1484 -125.295 25 12.9299 -124.229 1 26 10 79
1976242N08268 1976 103 EP MM JOANNE 1976-09-08 00:00:00 ET 13.2000 -124.500 25 hurdat_epa main 1829 O________OO___ hurdat_epa EP101976 13.2000 -124.500 ET 25 -4 13.2000 -124.500 25 13.2000 -124.500 1 25 12 80

About IBTrACS Database

This database is a web-friendly format of International Best Track Archive for Climate Stewardship (IBTrACS), a global best track data archive curated by NOAA dating back to 1842.

Updated: 2021-12-03